Time;durP1;ratioP1;P1;durP2;ratioP2;P2;SDS_P1;SDS_P2;PMS_P1;PMS_P2;Temp;Humidity;BMP_temperature;BMP_pressure;BME280_temperature;BME280_humidity;BME280_pressure;Samples;Min_cycle;Max_cycle;Signal;HPM_P1;HPM_P2
2021/03/04 00:00:51;;;;;;;21.53;9.30;;;6.80;1.00;;;13.57;64.33;98775.47;5008490;28;20258;-72
2021/03/04 00:03:18;;;;;;;20.20;9.53;;;6.80;1.00;;;13.62;63.70;98778.38;5011033;28;20219;-71
2021/03/04 00:05:45;;;;;;;15.97;8.17;;;6.80;1.00;;;13.63;63.08;98766.59;5011542;28;20219;-71
2021/03/04 00:08:11;;;;;;;21.67;9.40;;;6.70;1.00;;;13.59;63.41;98765.34;5011904;28;20230;-71
2021/03/04 00:10:39;;;;;;;20.57;8.83;;;6.70;1.00;;;13.54;63.78;98768.66;5008417;28;20204;-71
2021/03/04 00:13:05;;;;;;;18.30;9.30;;;6.70;1.00;;;13.49;64.59;98762.22;5011442;28;20227;-71
2021/03/04 00:15:33;;;;;;;20.33;9.13;;;6.70;1.00;;;12.93;67.16;98763.34;5007437;28;20694;-71
2021/03/04 00:18:00;;;;;;;16.20;8.77;;;6.70;1.00;;;13.32;64.95;98764.41;5012005;28;20468;-70
2021/03/04 00:20:29;;;;;;;14.93;7.63;;;6.60;1.00;;;13.14;62.94;98765.97;5009430;28;20568;-72
2021/03/04 00:22:55;;;;;;;18.57;7.47;;;6.60;1.00;;;13.34;62.84;98770.41;5011571;28;20667;-71
2021/03/04 00:25:26;;;;;;;15.60;7.43;;;6.60;1.00;;;13.26;63.57;98759.00;5011949;28;20262;-71
2021/03/04 00:27:53;;;;;;;20.57;8.33;;;6.70;1.00;;;13.35;63.15;98755.16;5011918;28;20620;-70
2021/03/04 00:30:22;;;;;;;18.57;8.47;;;6.60;1.00;;;13.33;63.36;98751.84;5011889;28;20296;-71
2021/03/04 00:32:49;;;;;;;17.00;7.70;;;6.60;1.00;;;13.35;63.49;98753.31;5012086;28;20195;-73
2021/03/04 00:35:16;;;;;;;17.40;8.20;;;6.60;1.00;;;13.36;62.85;98759.47;5011767;28;20226;-72
2021/03/04 00:37:42;;;;;;;18.40;8.17;;;6.60;1.00;;;13.31;62.52;98756.56;5012061;28;20290;-72
2021/03/04 00:40:11;;;;;;;16.30;7.73;;;6.60;1.00;;;13.34;62.71;98756.19;5012038;28;20201;-72
2021/03/04 00:42:38;;;;;;;16.17;7.10;;;6.60;1.00;;;13.18;63.44;98760.00;5012200;28;20556;-72
2021/03/04 00:45:09;;;;;;;19.60;7.50;;;6.50;1.00;;;13.19;61.71;98753.66;5011707;28;20619;-71
2021/03/04 00:47:35;;;;;;;10.93;6.63;;;6.60;1.00;;;13.13;60.08;98756.28;5009418;28;20191;-71
2021/03/04 00:50:02;;;;;;;16.40;6.87;;;6.60;1.00;;;13.28;60.19;98755.09;5011748;28;20218;-72
2021/03/04 00:52:29;;;;;;;20.30;7.63;;;6.60;1.00;;;13.33;59.67;98758.00;5011769;28;20214;-71
2021/03/04 00:54:55;;;;;;;22.50;7.80;;;6.60;1.00;;;13.35;60.32;98764.03;5011659;28;20227;-72
2021/03/04 00:57:22;;;;;;;13.47;7.67;;;6.50;1.00;;;13.35;61.04;98750.63;5012020;28;20203;-72
2021/03/04 00:59:48;;;;;;;18.13;7.87;;;6.60;1.00;;;13.28;61.07;98749.75;5011804;28;20263;-71
2021/03/04 01:02:16;;;;;;;15.07;7.50;;;6.50;1.00;;;13.22;61.34;98739.84;5013102;28;20211;-72
2021/03/04 01:04:42;;;;;;;20.40;8.60;;;6.50;1.00;;;13.00;62.68;98735.59;5014720;28;20219;-72
2021/03/04 01:07:08;;;;;;;14.03;6.97;;;6.50;1.00;;;13.06;61.91;98734.00;5018774;28;20238;-72
2021/03/04 01:09:35;;;;;;;17.43;7.80;;;6.40;1.00;;;13.09;62.04;98734.44;5016026;28;20202;-71
2021/03/04 01:12:02;;;;;;;15.87;7.60;;;6.50;1.00;;;13.12;61.82;98739.38;5014994;28;20207;-71
2021/03/04 01:14:28;;;;;;;14.03;7.50;;;6.40;1.00;;;13.02;62.47;98732.75;5014470;28;20245;-70
2021/03/04 01:16:55;;;;;;;15.07;7.80;;;6.30;1.00;;;13.05;62.75;98730.47;5017994;28;20195;-71
2021/03/04 01:19:23;;;;;;;21.10;8.17;;;6.30;1.00;;;12.97;63.63;98727.97;5017155;28;20199;-70
2021/03/04 01:21:49;;;;;;;19.00;7.93;;;6.30;1.00;;;12.70;65.13;98731.50;5015478;28;20878;-71
2021/03/04 01:24:16;;;;;;;18.67;7.37;;;6.30;1.00;;;12.87;64.14;98732.00;5015014;28;20227;-70
2021/03/04 01:26:42;;;;;;;16.23;8.03;;;6.30;1.00;;;12.43;67.26;98722.44;5019733;28;20219;-70
2021/03/04 01:29:09;;;;;;;13.90;7.43;;;6.30;1.00;;;12.74;64.77;98724.72;5015307;28;20215;-71
2021/03/04 01:31:35;;;;;;;17.67;7.47;;;6.30;1.00;;;12.94;63.67;98717.63;5013589;28;20245;-71
2021/03/04 01:34:01;;;;;;;15.73;7.73;;;6.30;1.00;;;12.59;65.48;98707.94;5014840;28;20590;-71
2021/03/04 01:36:29;;;;;;;15.53;7.73;;;6.30;1.00;;;12.72;64.43;98705.31;5014913;28;20203;-69
2021/03/04 01:38:55;;;;;;;14.10;7.60;;;6.30;1.00;;;12.83;64.29;98704.78;5015022;28;20214;-71
2021/03/04 01:41:22;;;;;;;16.70;7.63;;;6.30;1.00;;;12.98;62.98;98708.19;5015076;28;20199;-70
2021/03/04 01:43:48;;;;;;;15.40;7.73;;;6.30;1.00;;;12.80;63.61;98699.81;5014904;28;20223;-71
2021/03/04 01:46:14;;;;;;;15.37;7.03;;;6.30;1.00;;;12.93;62.98;98698.03;5014860;28;20235;-71
2021/03/04 01:48:42;;;;;;;12.87;6.37;;;6.20;1.00;;;12.98;62.37;98699.31;5015093;28;20685;-71
2021/03/04 01:51:09;;;;;;;13.23;7.57;;;6.20;1.00;;;12.94;61.96;98693.50;5015072;28;20578;-70
2021/03/04 01:53:36;;;;;;;11.90;6.27;;;6.20;1.00;;;12.98;60.30;98696.66;5008407;28;20219;-72
2021/03/04 01:56:03;;;;;;;11.37;6.23;;;6.20;1.00;;;12.80;60.83;98697.13;5014879;28;20203;-71
2021/03/04 01:58:30;;;;;;;12.83;5.47;;;6.20;1.00;;;12.66;59.94;98694.59;5014980;28;20214;-72
2021/03/04 02:00:57;;;;;;;9.27;4.97;;;6.20;1.00;;;12.59;57.33;98691.88;5015091;28;20686;-71
2021/03/04 02:03:24;;;;;;;9.40;5.03;;;6.20;1.00;;;12.84;54.68;98698.41;5014673;28;20228;-70
2021/03/04 02:05:50;;;;;;;11.23;5.33;;;6.20;1.00;;;12.75;53.98;98702.25;5014737;28;20238;-72
2021/03/04 02:08:24;;;;;;;9.40;4.67;;;6.20;1.00;;;12.87;53.99;98700.66;5014492;28;20603;-70
2021/03/04 02:10:58;;;;;;;10.57;5.33;;;6.20;1.00;;;12.93;52.61;98699.06;5014662;28;20203;-70
2021/03/04 02:13:32;;;;;;;11.20;4.73;;;6.20;1.00;;;12.69;51.00;98703.88;5012950;28;20238;-71
2021/03/04 02:16:04;;;;;;;9.03;4.80;;;6.30;1.00;;;12.85;51.50;98697.38;5013941;28;20275;-72
2021/03/04 02:18:35;;;;;;;12.03;4.30;;;6.30;1.00;;;12.88;51.05;98691.63;5014160;28;20199;-71
2021/03/04 02:21:32;;;;;;;11.03;4.43;;;6.20;1.00;;;12.93;51.00;98693.69;5016200;28;20214;-71
2021/03/04 02:24:23;;;;;;;8.37;4.37;;;6.20;1.00;;;12.53;54.30;98674.72;5012645;28;20230;-72
2021/03/04 02:27:04;;;;;;;7.90;3.90;;;6.10;1.00;;;12.69;51.90;98679.75;5014132;28;20218;-71
2021/03/04 02:29:37;;;;;;;7.70;4.27;;;6.10;1.00;;;12.57;50.72;98682.38;5014483;28;20201;-72
2021/03/04 02:32:05;;;;;;;7.30;3.73;;;6.10;1.00;;;12.68;49.39;98682.66;5006845;28;20204;-71
2021/03/04 02:34:33;;;;;;;7.37;4.20;;;6.10;1.00;;;12.76;49.15;98679.00;5013753;28;20230;-71
2021/03/04 02:37:01;;;;;;;10.90;3.80;;;6.10;1.00;;;12.79;50.18;98674.06;5013426;28;20767;-73
2021/03/04 02:39:29;;;;;;;6.33;3.77;;;6.10;1.00;;;12.67;51.36;98664.91;5013974;28;20644;-71
2021/03/04 02:41:57;;;;;;;8.70;3.93;;;6.00;1.00;;;12.56;50.60;98675.38;5010484;28;20218;-71
2021/03/04 02:44:25;;;;;;;7.27;4.10;;;6.00;1.00;;;12.38;50.87;98678.56;5011862;28;20223;-72
2021/03/04 02:46:51;;;;;;;6.87;4.00;;;6.10;1.00;;;12.52;51.37;98664.22;5014019;28;20231;-72
2021/03/04 02:49:20;;;;;;;7.07;3.83;;;6.10;1.00;;;12.77;49.89;98667.25;5013422;28;20226;-71
2021/03/04 02:51:48;;;;;;;7.70;4.13;;;6.10;1.00;;;12.76;48.84;98666.41;5013440;28;20210;-72
2021/03/04 02:54:15;;;;;;;9.27;4.23;;;6.10;1.00;;;12.63;48.61;98671.72;5005441;28;20223;-72
2021/03/04 02:56:43;;;;;;;7.23;3.67;;;6.20;1.00;;;12.87;48.20;98671.19;5013416;28;20202;-72
2021/03/04 02:59:11;;;;;;;8.17;4.30;;;6.20;1.00;;;12.54;49.96;98664.84;5010351;28;20230;-71
2021/03/04 03:01:39;;;;;;;8.30;4.03;;;6.20;1.00;;;12.84;48.88;98659.03;5013396;28;20199;-72
2021/03/04 03:04:06;;;;;;;10.80;4.10;;;6.20;1.00;;;12.87;49.91;98657.81;5013594;28;20219;-72
2021/03/04 03:06:34;;;;;;;8.37;4.13;;;6.20;1.00;;;12.90;48.90;98654.75;5012851;28;20219;-71
2021/03/04 03:09:04;;;;;;;7.70;3.93;;;6.20;1.00;;;12.95;48.86;98646.94;5013640;28;20566;-72
2021/03/04 03:11:31;;;;;;;9.40;5.00;;;6.20;1.00;;;12.86;49.04;98647.31;5012949;28;20480;-72
2021/03/04 03:14:00;;;;;;;5.63;3.73;;;6.20;1.00;;;12.65;50.39;98648.22;5012942;28;20722;-72
2021/03/04 03:16:28;;;;;;;9.80;4.10;;;6.20;1.00;;;12.78;49.75;98646.44;5014476;28;20811;-72
2021/03/04 03:18:55;;;;;;;7.43;3.67;;;6.20;1.00;;;12.92;49.56;98641.97;5013279;28;20202;-72
2021/03/04 03:21:21;;;;;;;8.13;4.00;;;6.20;1.00;;;12.78;51.72;98637.59;5013389;28;20253;-71
2021/03/04 03:23:48;;;;;;;9.03;4.07;;;6.20;1.00;;;12.76;51.04;98638.81;5013300;28;20227;-71
2021/03/04 03:26:14;;;;;;;9.60;4.40;;;6.10;1.00;;;12.65;51.39;98642.88;5012564;28;20700;-72
2021/03/04 03:28:41;;;;;;;10.23;3.80;;;6.10;1.00;;;12.77;51.01;98636.75;5013371;28;20207;-71
2021/03/04 03:31:08;;;;;;;8.50;3.73;;;6.10;1.00;;;12.77;50.83;98637.78;5013235;28;20207;-72
2021/03/04 03:33:36;;;;;;;9.73;4.00;;;6.10;1.00;;;12.74;51.43;98631.78;5011704;28;20280;-71
2021/03/04 03:36:07;;;;;;;11.13;4.50;;;6.00;1.00;;;12.28;52.35;98630.72;5013020;28;20210;-71
2021/03/04 03:38:35;;;;;;;8.43;3.67;;;6.10;1.00;;;12.48;51.43;98638.03;5012798;28;20195;-71
2021/03/04 03:41:03;;;;;;;6.73;3.97;;;6.10;1.00;;;12.64;51.13;98630.53;5012927;28;20204;-71
2021/03/04 03:43:30;;;;;;;9.93;4.20;;;6.10;1.00;;;12.83;50.30;98640.50;5012876;28;20227;-71
2021/03/04 03:45:58;;;;;;;9.80;4.20;;;6.10;1.00;;;12.65;51.92;98634.84;5013062;28;20263;-72
2021/03/04 03:48:26;;;;;;;10.00;4.50;;;6.10;1.00;;;12.77;50.88;98635.13;5013393;28;20203;-71
2021/03/04 03:50:56;;;;;;;12.93;4.60;;;6.00;1.00;;;12.75;51.05;98635.31;5015849;28;20301;-71
2021/03/04 03:53:24;;;;;;;9.13;4.13;;;6.10;1.00;;;12.60;52.22;98629.25;5012508;28;20227;-71
2021/03/04 03:55:54;;;;;;;9.73;4.13;;;6.10;1.00;;;12.74;51.39;98634.47;5012500;28;20554;-71
2021/03/04 03:58:23;;;;;;;8.27;4.23;;;6.10;1.00;;;12.75;51.40;98624.59;5012262;28;20217;-71
2021/03/04 04:00:54;;;;;;;8.23;4.97;;;6.00;1.00;;;12.63;52.05;98627.00;5012684;28;20214;-72
2021/03/04 04:03:21;;;;;;;10.40;4.93;;;6.10;1.00;;;12.62;51.39;98623.72;5012039;28;20707;-71
2021/03/04 04:05:48;;;;;;;12.40;5.00;;;6.00;1.00;;;12.73;51.86;98619.44;5015960;28;20223;-70
2021/03/04 04:08:18;;;;;;;8.13;4.57;;;6.00;1.00;;;12.67;52.31;98610.56;5012336;28;20745;-71
2021/03/04 04:10:47;;;;;;;8.67;5.00;;;6.00;1.00;;;12.58;53.26;98605.34;5012439;28;20203;-70
2021/03/04 04:13:15;;;;;;;10.87;4.77;;;5.90;1.00;;;12.51;54.11;98600.19;5014727;28;20231;-70
2021/03/04 04:15:42;;;;;;;10.73;4.77;;;5.90;1.00;;;12.49;53.59;98595.81;5012310;28;20195;-71
2021/03/04 04:18:09;;;;;;;14.77;4.50;;;5.90;1.00;;;12.33;54.82;98598.84;5008830;28;20211;-71
2021/03/04 04:20:37;;;;;;;6.60;4.43;;;5.90;1.00;;;12.18;56.50;98597.31;5012548;28;20191;-72
2021/03/04 04:23:04;;;;;;;9.57;5.10;;;5.90;1.00;;;12.22;55.59;98587.88;5012421;28;20201;-71
2021/03/04 04:25:31;;;;;;;13.77;5.40;;;5.90;1.00;;;12.03;57.25;98586.72;5011598;28;20565;-72
2021/03/04 04:27:58;;;;;;;11.80;4.67;;;5.80;1.00;;;12.15;57.04;98580.84;5012352;28;20253;-71
2021/03/04 04:30:25;;;;;;;14.63;5.50;;;5.80;1.00;;;12.15;56.84;98586.19;5013484;28;20202;-71
2021/03/04 04:32:53;;;;;;;11.00;5.00;;;5.80;1.00;;;12.06;57.92;98588.16;5007004;28;20295;-72
2021/03/04 04:35:19;;;;;;;8.60;4.67;;;5.70;1.00;;;11.87;59.42;98572.00;5013498;28;20195;-72
2021/03/04 04:37:46;;;;;;;11.80;5.33;;;5.70;1.00;;;12.10;57.58;98583.28;5016823;28;20205;-73
2021/03/04 04:40:13;;;;;;;12.57;5.43;;;5.60;1.00;;;11.90;58.96;98568.94;5019147;28;20203;-72
2021/03/04 04:42:40;;;;;;;12.70;5.63;;;5.50;1.00;;;12.02;58.51;98569.00;5018712;28;20586;-72
2021/03/04 04:45:09;;;;;;;15.00;5.73;;;5.50;1.00;;;11.95;59.74;98566.50;5018146;28;20230;-70
2021/03/04 04:47:36;;;;;;;9.30;5.70;;;5.40;1.00;;;11.96;59.02;98562.81;5018010;28;20695;-73
2021/03/04 04:50:03;;;;;;;13.33;6.40;;;5.40;1.00;;;12.02;58.97;98567.38;5018720;28;20607;-73
2021/03/04 04:52:30;;;;;;;10.73;5.63;;;5.50;1.00;;;12.01;58.97;98569.19;5017951;28;21630;-73
2021/03/04 04:54:56;;;;;;;10.47;5.07;;;5.50;1.00;;;12.08;58.42;98560.19;5018766;28;20229;-73
2021/03/04 04:57:25;;;;;;;11.27;5.40;;;5.50;1.00;;;12.13;58.60;98555.06;5023889;28;20236;-72
2021/03/04 04:59:52;;;;;;;9.73;4.70;;;5.50;1.00;;;12.11;58.38;98556.31;5018877;28;20680;-72
2021/03/04 05:02:18;;;;;;;9.33;5.00;;;5.50;1.00;;;12.12;58.20;98557.13;5016741;28;20686;-72
2021/03/04 05:04:45;;;;;;;9.80;4.90;;;5.50;1.00;;;11.95;58.41;98553.13;5018081;28;20229;-73
2021/03/04 05:07:11;;;;;;;9.67;4.53;;;5.50;1.00;;;11.97;58.23;98556.44;5018138;28;20252;-73
2021/03/04 05:09:38;;;;;;;11.30;4.67;;;5.50;1.00;;;12.12;57.72;98557.13;5018424;28;20203;-72
2021/03/04 05:12:06;;;;;;;11.27;4.90;;;5.40;1.00;;;12.05;57.46;98545.59;5018160;28;20208;-73
2021/03/04 05:14:32;;;;;;;12.53;4.93;;;5.40;1.00;;;11.77;56.83;98549.09;5017638;28;20230;-72
2021/03/04 05:17:00;;;;;;;11.00;4.57;;;5.40;1.00;;;11.68;55.05;98551.28;5018021;28;20210;-72
2021/03/04 05:19:26;;;;;;;11.47;4.20;;;5.40;1.00;;;11.86;53.85;98546.28;5018426;28;20206;-72
2021/03/04 05:21:52;;;;;;;10.83;3.97;;;5.40;1.00;;;11.86;53.00;98548.97;5018041;28;20282;-72
2021/03/04 05:24:19;;;;;;;11.77;4.20;;;5.40;1.00;;;11.91;52.58;98551.88;5017539;28;20230;-73
2021/03/04 05:26:45;;;;;;;5.57;3.20;;;5.40;1.00;;;11.95;51.90;98547.78;5017325;28;20248;-71
2021/03/04 05:29:12;;;;;;;8.63;4.00;;;5.40;1.00;;;11.97;52.29;98548.41;5017773;28;20244;-70
2021/03/04 05:31:38;;;;;;;7.20;3.73;;;5.30;1.00;;;11.97;52.08;98543.06;5017886;28;20667;-70
2021/03/04 05:34:06;;;;;;;10.80;3.63;;;5.30;1.00;;;11.95;52.13;98537.91;5017795;28;20222;-71
2021/03/04 05:36:33;;;;;;;14.83;4.17;;;5.30;1.00;;;11.95;51.59;98534.41;5018073;28;20563;-73
2021/03/04 05:39:01;;;;;;;10.07;4.07;;;5.30;1.00;;;11.91;50.85;98539.31;5018632;28;20206;-74
2021/03/04 05:41:29;;;;;;;8.60;3.83;;;5.30;1.00;;;11.82;52.48;98532.47;5018428;28;20209;-73
2021/03/04 05:43:56;;;;;;;10.83;3.77;;;5.30;1.00;;;11.78;50.21;98539.22;5018155;28;20594;-72
2021/03/04 05:46:23;;;;;;;10.00;3.83;;;5.30;1.00;;;11.77;52.18;98528.72;5018082;28;20226;-74
2021/03/04 05:48:51;;;;;;;9.13;4.17;;;5.30;1.00;;;11.81;50.37;98535.34;5015981;28;20346;-72
2021/03/04 05:51:26;;;;;;;8.10;3.97;;;5.20;1.00;;;11.73;50.05;98535.47;5014874;28;20672;-71
2021/03/04 05:53:58;;;;;;;9.63;4.20;;;5.20;1.00;;;11.72;50.24;98540.03;5014820;28;20262;-72
2021/03/04 05:56:25;;;;;;;11.47;4.57;;;5.30;1.00;;;11.60;49.90;98532.72;5014923;28;20340;-73
2021/03/04 05:58:53;;;;;;;9.47;4.50;;;5.30;1.00;;;11.82;49.05;98531.63;5014966;28;20202;-72
2021/03/04 06:01:20;;;;;;;15.30;4.53;;;5.40;1.00;;;11.90;49.01;98529.63;5015191;28;20195;-73
2021/03/04 06:03:47;;;;;;;6.73;3.60;;;5.40;1.00;;;11.76;49.39;98535.91;5010212;28;20219;-71
2021/03/04 06:06:14;;;;;;;8.87;4.30;;;5.60;1.00;;;11.91;48.24;98536.63;5011835;28;20230;-72
2021/03/04 06:08:41;;;;;;;9.30;3.77;;;5.60;1.00;;;12.05;47.96;98533.00;5014309;28;20207;-74
2021/03/04 06:11:07;;;;;;;9.63;4.83;;;5.60;1.00;;;11.71;49.28;98532.19;5014653;28;20205;-71
2021/03/04 06:13:34;;;;;;;9.33;4.47;;;5.60;1.00;;;11.81;49.05;98530.00;5005853;28;20234;-71
2021/03/04 06:16:01;;;;;;;10.57;4.27;;;5.60;1.00;;;12.10;47.96;98532.44;5059102;23;21008;-76
2021/03/04 06:18:40;;;;;;;7.57;3.73;;;5.60;1.00;;;11.96;47.41;98526.16;5050517;28;20204;-76
2021/03/04 06:21:23;;;;;;;14.77;4.60;;;5.60;1.00;;;11.95;47.58;98537.91;5051948;28;20216;-74
2021/03/04 06:23:50;;;;;;;8.90;4.43;;;5.70;1.00;;;12.04;46.98;98534.03;5043635;28;20789;-76
2021/03/04 06:26:38;;;;;;;11.27;4.13;;;5.80;1.00;;;12.25;45.54;98528.59;5052455;28;20234;-76
2021/03/04 06:29:15;;;;;;;10.87;3.87;;;5.90;1.00;;;12.49;44.81;98533.44;5048276;28;20288;-76
2021/03/04 06:31:43;;;;;;;15.00;4.60;;;6.10;1.00;;;12.52;44.37;98539.22;5048083;28;20637;-76
2021/03/04 06:34:20;;;;;;;10.27;3.83;;;6.10;1.00;;;12.49;44.44;98544.97;5046831;28;20201;-76
2021/03/04 06:36:56;;;;;;;9.13;4.47;;;6.30;1.00;;;12.40;43.58;98544.53;5048284;28;20198;-77
2021/03/04 06:39:23;;;;;;;12.70;4.40;;;6.50;1.00;;;12.69;43.62;98537.81;5049771;28;20634;-77
2021/03/04 06:42:01;;;;;;;8.80;4.10;;;6.70;1.00;;;12.86;42.22;98543.66;5050023;28;20689;-76
2021/03/04 06:44:27;;;;;;;13.47;4.80;;;6.80;1.00;;;12.93;42.02;98546.34;5042696;28;20227;-76
2021/03/04 06:46:54;;;;;;;9.70;4.03;;;6.90;1.00;;;13.33;41.12;98542.75;5046926;28;20235;-78
2021/03/04 06:49:20;;;;;;;12.27;4.47;;;7.00;1.00;;;13.26;40.80;98540.06;5050917;28;20561;-76
2021/03/04 06:51:47;;;;;;;13.07;4.57;;;7.00;1.00;;;13.56;40.50;98540.47;5055119;28;20252;-77
2021/03/04 06:54:24;;;;;;;10.40;4.40;;;7.10;1.00;;;13.60;40.12;98547.91;5056418;28;20214;-79
2021/03/04 06:56:51;;;;;;;17.93;4.83;;;7.20;1.00;;;13.67;40.21;98539.88;5064234;28;20283;-75
2021/03/04 06:59:17;;;;;;;19.47;4.17;;;7.20;1.00;;;13.63;39.95;98544.81;5048283;28;20202;-77
2021/03/04 07:01:44;;;;;;;15.37;5.20;;;7.40;1.00;;;13.89;39.80;98544.81;5051482;28;20198;-77
2021/03/04 07:04:16;;;;;;;18.57;5.27;;;;;;;13.80;39.74;98543.38;5055340;28;20206;-82
2021/03/04 07:06:46;;;;;;;15.33;5.17;;;;;;;14.06;39.24;98545.16;5055212;28;20225;-78
2021/03/04 07:09:14;;;;;;;20.50;5.10;;;7.70;1.00;;;14.10;38.94;98552.59;5056529;28;20208;-76
2021/03/04 07:11:44;;;;;;;14.23;5.33;;;7.60;1.00;;;14.05;38.96;98551.56;5050632;28;20558;-81
2021/03/04 07:14:11;;;;;;;16.43;4.50;;;7.70;1.00;;;13.93;39.28;98554.06;5047391;28;20214;-75
2021/03/04 07:16:43;;;;;;;10.17;4.60;;;7.80;1.00;;;14.19;38.68;98554.00;5046718;28;20206;-76
2021/03/04 07:19:11;;;;;;;12.20;4.80;;;7.90;1.00;;;14.27;38.57;98547.63;5046988;28;20238;-75
2021/03/04 07:21:40;;;;;;;10.90;4.87;;;8.00;1.00;;;14.49;38.21;98546.31;5049221;28;20199;-74
2021/03/04 07:24:08;;;;;;;15.63;4.70;;;8.10;1.00;;;14.37;38.06;98553.38;5045432;28;20200;-75
2021/03/04 07:26:37;;;;;;;11.27;4.77;;;8.20;1.00;;;14.75;37.56;98554.28;5044389;28;20258;-74
2021/03/04 07:29:06;;;;;;;11.47;4.80;;;8.20;1.00;;;14.58;37.60;98547.75;5050877;28;20210;-79
2021/03/04 07:31:33;;;;;;;18.07;4.40;;;8.20;1.00;;;14.25;37.36;98553.22;5045239;28;20250;-74
2021/03/04 07:34:00;;;;;;;10.60;4.40;;;8.30;1.00;;;14.52;37.79;98544.03;5052644;28;20206;-74
2021/03/04 07:36:28;;;;;;;8.13;4.33;;;8.30;1.00;;;15.01;36.76;98543.38;5042848;28;20272;-74
2021/03/04 07:39:00;;;;;;;15.73;4.80;;;8.40;1.00;;;15.12;36.12;98551.59;5037916;28;20619;-74
2021/03/04 07:41:37;;;;;;;14.23;4.57;;;8.50;1.00;;;15.05;36.16;98550.78;5046609;28;20514;-75
2021/03/04 07:44:06;;;;;;;7.20;3.87;;;8.70;1.00;;;15.46;35.68;98550.34;5032792;28;20214;-75
2021/03/04 07:46:35;;;;;;;11.37;4.87;;;;;;;15.92;35.09;98545.41;5048784;28;20268;-74
2021/03/04 07:49:04;;;;;;;11.87;4.60;;;9.10;1.00;;;15.24;35.72;98547.16;5045237;28;20200;-74
2021/03/04 07:51:42;;;;;;;11.47;4.33;;;9.30;1.00;;;16.39;34.16;98555.47;5050879;28;20200;-74
2021/03/04 07:54:10;;;;;;;8.70;4.10;;;9.50;1.00;;;16.33;33.78;98549.13;5044319;28;20200;-74
2021/03/04 07:56:36;;;;;;;10.00;4.30;;;9.60;1.00;;;16.09;33.96;98551.84;5044593;28;20205;-74
2021/03/04 07:59:12;;;;;;;11.13;4.20;;;9.70;1.00;;;16.37;34.00;98541.41;5052400;28;20216;-75
2021/03/04 08:01:40;;;;;;;10.77;4.70;;;9.70;1.00;;;16.01;34.07;98536.81;5052407;28;20194;-74
2021/03/04 08:04:18;;;;;;;11.00;3.87;;;;;;;15.98;33.73;98541.81;5052057;28;20538;-74
2021/03/04 08:06:45;;;;;;;7.47;3.90;;;9.70;1.00;;;16.44;33.55;98539.47;5045674;28;20218;-74
2021/03/04 08:09:11;;;;;;;11.07;4.40;;;9.80;1.00;;;15.87;34.12;98531.78;5051948;28;20578;-74
2021/03/04 08:11:38;;;;;;;9.57;4.30;;;9.80;1.00;;;16.52;33.87;98529.22;5050819;28;20654;-74
2021/03/04 08:14:14;;;;;;;8.23;4.00;;;9.90;1.00;;;16.23;34.59;98537.19;5042245;28;20285;-75
2021/03/04 08:16:41;;;;;;;10.63;3.93;;;9.90;1.00;;;16.17;34.68;98532.72;5044726;28;20201;-75
2021/03/04 08:19:08;;;;;;;9.50;4.30;;;10.10;1.00;;;16.49;33.56;98534.25;5052147;28;20214;-74
2021/03/04 08:21:41;;;;;;;8.67;4.40;;;10.20;1.00;;;16.23;34.46;98527.25;5051664;28;20804;-74
2021/03/04 08:24:13;;;;;;;13.57;4.50;;;10.10;1.00;;;16.65;33.76;98531.75;5051599;28;20544;-74
2021/03/04 08:26:40;;;;;;;11.83;4.07;;;10.20;1.00;;;16.59;33.42;98529.13;5049461;28;20222;-77
2021/03/04 08:29:10;;;;;;;12.73;4.77;;;10.40;1.00;;;16.27;33.73;98523.06;5046938;28;20215;-78
2021/03/04 08:31:44;;;;;;;11.93;4.90;;;10.50;1.00;;;16.50;34.45;98514.31;5040660;28;20192;-77
2021/03/04 08:34:10;;;;;;;10.60;4.87;;;10.50;1.00;;;15.95;33.98;98515.34;5043850;28;20210;-77
2021/03/04 08:36:41;;;;;;;8.83;3.80;;;10.60;1.00;;;16.74;33.75;98511.53;5050265;28;20198;-78
2021/03/04 08:39:08;;;;;;;13.23;4.20;;;10.80;1.00;;;16.99;32.46;98506.00;5048716;28;20204;-78
2021/03/04 08:41:35;;;;;;;8.50;3.80;;;11.00;1.00;;;17.17;32.25;98504.06;5050743;28;20271;-77
2021/03/04 08:44:11;;;;;;;11.63;4.30;;;11.30;1.00;;;17.47;31.81;98512.97;5050247;28;20589;-78
2021/03/04 08:46:40;;;;;;;9.67;4.03;;;11.40;1.00;;;17.26;32.39;98494.59;5048892;28;20232;-79
2021/03/04 08:49:06;;;;;;;10.03;4.27;;;11.40;1.00;;;17.44;31.69;98502.66;5050067;28;20209;-78
2021/03/04 08:51:42;;;;;;;7.50;4.27;;;11.40;1.00;;;17.52;31.55;98510.38;5042614;28;20190;-78
2021/03/04 08:54:19;;;;;;;8.27;4.00;;;11.40;1.00;;;17.67;31.50;98502.66;5050904;28;20202;-78
2021/03/04 08:56:56;;;;;;;8.43;4.00;;;11.40;1.00;;;18.06;31.04;98503.84;5045829;28;20210;-77
2021/03/04 08:59:24;;;;;;;9.87;4.00;;;11.60;1.00;;;17.37;31.85;98503.78;5043977;28;20217;-75
2021/03/04 09:01:52;;;;;;;11.03;4.43;;;11.60;1.00;;;17.96;31.58;98496.34;5052890;28;20256;-75
2021/03/04 09:04:20;;;;;;;9.00;4.10;;;11.70;1.00;;;17.86;31.36;98485.31;5049573;28;20201;-75
2021/03/04 09:06:46;;;;;;;14.70;4.50;;;11.90;1.00;;;18.37;30.53;98490.78;5057979;28;20224;-77
2021/03/04 09:09:24;;;;;;;9.97;4.27;;;12.00;1.00;;;18.23;31.09;98488.56;5058394;28;20293;-76
2021/03/04 09:11:52;;;;;;;13.70;3.87;;;12.00;1.00;;;18.67;30.07;98491.41;5052290;28;20209;-78
2021/03/04 09:14:25;;;;;;;9.20;4.50;;;12.10;1.00;;;17.91;31.18;98485.41;5047591;28;20224;-76
2021/03/04 09:16:53;;;;;;;8.27;3.77;;;12.10;1.00;;;18.06;31.18;98482.22;5036057;28;20211;-76
2021/03/04 09:19:28;;;;;;;11.17;5.13;;;12.00;1.00;;;17.67;31.44;98486.47;5049392;28;20211;-77
2021/03/04 09:21:57;;;;;;;13.00;4.87;;;12.00;1.00;;;18.07;31.48;98473.06;5050662;28;20268;-77
2021/03/04 09:24:24;;;;;;;8.93;4.33;;;12.00;1.00;;;18.19;31.33;98468.47;5054271;28;20202;-76
2021/03/04 09:26:51;;;;;;;8.60;4.50;;;12.20;1.00;;;17.90;31.32;98472.16;5054434;28;20222;-78
2021/03/04 09:29:19;;;;;;;12.00;4.20;;;12.50;1.00;;;17.92;31.67;98461.91;5055145;28;20602;-77
2021/03/04 09:31:52;;;;;;;9.70;4.33;;;12.60;1.00;;;18.39;30.97;98472.44;5054791;28;20194;-76
2021/03/04 09:34:19;;;;;;;11.67;4.70;;;12.60;1.00;;;18.60;30.73;98460.16;5052543;28;20209;-73
2021/03/04 09:36:45;;;;;;;13.10;4.90;;;12.50;1.00;;;18.24;31.45;98463.19;5050799;28;20202;-76
2021/03/04 09:39:11;;;;;;;12.73;5.37;;;12.50;1.00;;;18.08;31.37;98459.31;5052979;28;20198;-77
2021/03/04 09:41:38;;;;;;;12.10;5.03;;;12.40;1.00;;;17.92;31.74;98457.34;5054900;28;20201;-76
2021/03/04 09:44:06;;;;;;;9.00;4.20;;;12.40;1.00;;;18.01;32.27;98450.53;5054191;28;20277;-76
2021/03/04 09:46:35;;;;;;;10.10;4.03;;;12.50;1.00;;;18.46;31.24;98442.56;5050342;28;20283;-76
2021/03/04 09:49:12;;;;;;;12.77;4.67;;;12.70;1.00;;;18.96;30.63;98444.38;5054813;28;20209;-76
2021/03/04 09:51:40;;;;;;;14.67;4.50;;;;;;;18.82;31.33;98439.47;5043577;28;20936;-78
2021/03/04 09:54:08;;;;;;;14.37;4.77;;;12.80;1.00;;;18.57;31.36;98433.59;5044419;28;20206;-77
2021/03/04 09:56:34;;;;;;;8.67;3.70;;;12.90;1.00;;;18.55;31.62;98433.03;5050784;28;20195;-77
2021/03/04 09:59:01;;;;;;;8.43;4.00;;;13.00;1.00;;;19.03;31.14;98427.97;5052936;28;20198;-76
2021/03/04 10:01:30;;;;;;;7.57;3.80;;;13.20;1.00;;;19.33;30.85;98425.78;5054312;28;20193;-78
2021/03/04 10:04:02;;;;;;;13.23;4.23;;;13.30;1.00;;;18.91;32.09;98411.00;5054087;28;20202;-77
2021/03/04 10:06:33;;;;;;;10.60;4.57;;;13.40;1.00;;;19.45;31.17;98411.09;5053607;28;20692;-76
2021/03/04 10:09:00;;;;;;;8.70;3.90;;;13.50;1.00;;;19.63;30.87;98420.84;5054809;28;20217;-77
2021/03/04 10:11:31;;;;;;;9.67;4.13;;;;;;;19.82;30.78;98420.31;5050533;28;20243;-76
2021/03/04 10:14:08;;;;;;;8.97;3.97;;;;;;;19.98;30.09;98416.78;5049403;28;20206;-76
2021/03/04 10:16:35;;;;;;;13.20;5.40;;;;;;;20.04;30.82;98404.94;5051132;28;20207;-78
2021/03/04 10:19:01;;;;;;;10.53;4.80;;;;;;;19.45;31.99;98394.88;5046984;28;20256;-76
2021/03/04 10:21:29;;;;;;;12.83;5.57;;;;;;;19.31;32.39;98401.69;5052823;28;20206;-75
2021/03/04 10:23:56;;;;;;;20.20;6.20;;;;;;;18.52;33.52;98391.09;5051784;28;20206;-75
2021/03/04 10:26:23;;;;;;;14.77;5.50;;;;;;;18.98;33.23;98398.13;5051846;28;20312;-78
2021/03/04 10:28:50;;;;;;;12.97;6.30;;;;;;;19.13;33.08;98393.78;5054177;28;20593;-77
2021/03/04 10:31:17;;;;;;;11.23;5.73;;;;;;;19.34;33.19;98393.06;5046214;28;20235;-76
2021/03/04 10:33:43;;;;;;;17.00;6.53;;;;;;;19.07;32.96;98399.34;5047271;28;20666;-77
2021/03/04 10:36:11;;;;;;;12.67;5.77;;;;;;;19.57;32.83;98392.06;5052644;28;21013;-77